Chandler, Arizona
Current Conditions -  °F | °C
As of 8:47 PM on Friday 24 Oct 2014 (Local Time) from KCHD Reporting Station
Clear Clear  
Wind Chill: 77°   Ceiling: Unl
Heat Index: 79°   Visibility: 15mi
Dew Point: 55°   Wind: 0mph
Humidity: 47%   Direction: NA
Pressure: 29.99"   Gusts: NA
Location:  33.3°N, 111.84°W
Report Text: KCHD 250347Z 00000KT 15SM SKC 25/13 A2999 RMK LAST
Loading
Personal Weather Stations






























Interactive Weather Map
Tropical Storm Tracking
New forecast layout! Learn more

10-Day Weather Forecast

Advertisements
Track Severe Weather on mobile